sensor_id;sensor_type;location;lat;lon;timestamp;P1;P2;P0
75385;PMS5003;64239;55.012;73.474;2023-06-22T00:01:50;1.50;1.00;1.00
75385;PMS5003;64239;55.012;73.474;2023-06-22T00:04:16;1.00;1.00;1.00
75385;PMS5003;64239;55.012;73.474;2023-06-22T00:06:42;1.00;1.00;1.00
75385;PMS5003;64239;55.012;73.474;2023-06-22T00:09:08;2.00;2.00;1.00
75385;PMS5003;64239;55.012;73.474;2023-06-22T00:11:36;12.00;7.00;3.00
75385;PMS5003;64239;55.012;73.474;2023-06-22T00:14:02;5.25;4.50;2.25
75385;PMS5003;64239;55.012;73.474;2023-06-22T00:16:28;2.00;2.00;1.00
75385;PMS5003;64239;55.012;73.474;2023-06-22T00:18:54;2.00;2.00;2.00
75385;PMS5003;64239;55.012;73.474;2023-06-22T00:21:20;2.25;2.00;1.00
75385;PMS5003;64239;55.012;73.474;2023-06-22T00:23:46;2.75;2.00;1.25
75385;PMS5003;64239;55.012;73.474;2023-06-22T00:26:13;2.00;2.00;1.00
75385;PMS5003;64239;55.012;73.474;2023-06-22T00:28:39;2.00;2.00;1.00
75385;PMS5003;64239;55.012;73.474;2023-06-22T00:31:04;2.00;2.00;1.00
75385;PMS5003;64239;55.012;73.474;2023-06-22T00:33:30;3.00;3.00;2.00
75385;PMS5003;64239;55.012;73.474;2023-06-22T00:35:57;3.00;3.00;2.00
75385;PMS5003;64239;55.012;73.474;2023-06-22T00:38:22;3.00;3.00;2.00
75385;PMS5003;64239;55.012;73.474;2023-06-22T00:40:48;2.50;2.25;2.00
75385;PMS5003;64239;55.012;73.474;2023-06-22T00:43:16;3.00;3.00;2.00
75385;PMS5003;64239;55.012;73.474;2023-06-22T00:45:41;4.00;3.50;3.00
75385;PMS5003;64239;55.012;73.474;2023-06-22T00:48:07;4.00;3.00;2.00
75385;PMS5003;64239;55.012;73.474;2023-06-22T00:50:34;4.00;3.00;3.00
75385;PMS5003;64239;55.012;73.474;2023-06-22T00:53:03;5.00;4.00;3.00
75385;PMS5003;64239;55.012;73.474;2023-06-22T00:55:42;2.50;2.00;2.00
75385;PMS5003;64239;55.012;73.474;2023-06-22T00:58:09;4.00;4.00;2.00
75385;PMS5003;64239;55.012;73.474;2023-06-22T01:00:37;3.00;3.00;2.00
75385;PMS5003;64239;55.012;73.474;2023-06-22T01:03:03;5.00;4.00;3.00
75385;PMS5003;64239;55.012;73.474;2023-06-22T01:05:29;4.00;4.00;2.00
75385;PMS5003;64239;55.012;73.474;2023-06-22T01:08:16;5.00;5.00;3.00
75385;PMS5003;64239;55.012;73.474;2023-06-22T01:10:50;4.00;3.00;2.00
75385;PMS5003;64239;55.012;73.474;2023-06-22T01:15:48;4.00;3.25;3.00
75385;PMS5003;64239;55.012;73.474;2023-06-22T01:18:15;4.00;4.00;3.00
75385;PMS5003;64239;55.012;73.474;2023-06-22T01:20:43;4.50;4.00;3.00
75385;PMS5003;64239;55.012;73.474;2023-06-22T01:30:48;4.50;4.00;3.00
75385;PMS5003;64239;55.012;73.474;2023-06-22T01:33:15;5.00;5.00;3.75
75385;PMS5003;64239;55.012;73.474;2023-06-22T01:35:41;6.00;6.00;5.00
75385;PMS5003;64239;55.012;73.474;2023-06-22T01:38:08;5.00;5.00;4.00
75385;PMS5003;64239;55.012;73.474;2023-06-22T01:40:35;3.50;3.00;3.00
75385;PMS5003;64239;55.012;73.474;2023-06-22T01:43:02;4.00;4.00;3.00
75385;PMS5003;64239;55.012;73.474;2023-06-22T01:45:30;5.00;4.00;2.00
75385;PMS5003;64239;55.012;73.474;2023-06-22T01:47:56;4.00;3.50;3.00
75385;PMS5003;64239;55.012;73.474;2023-06-22T01:50:22;4.00;4.00;2.00
75385;PMS5003;64239;55.012;73.474;2023-06-22T01:52:48;3.00;3.00;2.00
75385;PMS5003;64239;55.012;73.474;2023-06-22T01:55:14;2.50;2.50;2.00
75385;PMS5003;64239;55.012;73.474;2023-06-22T01:57:40;3.00;3.00;2.00
75385;PMS5003;64239;55.012;73.474;2023-06-22T02:00:07;3.00;3.00;2.00
75385;PMS5003;64239;55.012;73.474;2023-06-22T02:03:18;4.00;3.00;2.00
75385;PMS5003;64239;55.012;73.474;2023-06-22T02:05:33;4.00;3.00;2.00
75385;PMS5003;64239;55.012;73.474;2023-06-22T02:10:26;6.00;5.00;3.00
75385;PMS5003;64239;55.012;73.474;2023-06-22T02:12:53;5.00;4.00;3.00
75385;PMS5003;64239;55.012;73.474;2023-06-22T02:15:20;5.50;4.00;3.00
75385;PMS5003;64239;55.012;73.474;2023-06-22T02:17:48;9.00;8.00;6.00
75385;PMS5003;64239;55.012;73.474;2023-06-22T02:20:15;7.25;6.75;5.00
75385;PMS5003;64239;55.012;73.474;2023-06-22T02:22:41;2.50;2.00;2.00
75385;PMS5003;64239;55.012;73.474;2023-06-22T02:25:07;3.00;3.00;2.00
75385;PMS5003;64239;55.012;73.474;2023-06-22T02:27:33;5.50;5.00;3.00
75385;PMS5003;64239;55.012;73.474;2023-06-22T02:29:59;5.00;4.00;3.00
75385;PMS5003;64239;55.012;73.474;2023-06-22T02:32:25;3.00;3.00;2.00
75385;PMS5003;64239;55.012;73.474;2023-06-22T02:34:52;4.00;3.00;2.00
75385;PMS5003;64239;55.012;73.474;2023-06-22T02:37:18;4.00;4.00;3.00
75385;PMS5003;64239;55.012;73.474;2023-06-22T02:39:44;2.25;2.00;1.75
75385;PMS5003;64239;55.012;73.474;2023-06-22T02:42:10;2.75;2.00;1.00
75385;PMS5003;64239;55.012;73.474;2023-06-22T02:44:36;5.00;3.00;2.75
75385;PMS5003;64239;55.012;73.474;2023-06-22T02:47:02;8.00;7.00;4.00
75385;PMS5003;64239;55.012;73.474;2023-06-22T02:49:28;22.00;19.00;12.00
75385;PMS5003;64239;55.012;73.474;2023-06-22T02:51:54;8.00;8.00;5.00
75385;PMS5003;64239;55.012;73.474;2023-06-22T02:54:20;5.00;4.00;3.00
75385;PMS5003;64239;55.012;73.474;2023-06-22T02:56:46;5.00;5.00;3.00
75385;PMS5003;64239;55.012;73.474;2023-06-22T02:59:13;9.00;8.00;6.00
75385;PMS5003;64239;55.012;73.474;2023-06-22T03:01:39;6.00;4.25;3.00
75385;PMS5003;64239;55.012;73.474;2023-06-22T03:04:09;4.00;4.00;3.00
75385;PMS5003;64239;55.012;73.474;2023-06-22T03:06:35;5.00;5.00;3.00
75385;PMS5003;64239;55.012;73.474;2023-06-22T03:09:02;11.75;10.00;6.50
75385;PMS5003;64239;55.012;73.474;2023-06-22T03:11:29;9.00;8.00;5.00
75385;PMS5003;64239;55.012;73.474;2023-06-22T03:13:56;5.00;4.00;2.25
75385;PMS5003;64239;55.012;73.474;2023-06-22T03:16:22;4.00;3.00;3.00
75385;PMS5003;64239;55.012;73.474;2023-06-22T03:18:48;5.00;4.00;3.00
75385;PMS5003;64239;55.012;73.474;2023-06-22T03:21:13;5.00;5.00;3.50
75385;PMS5003;64239;55.012;73.474;2023-06-22T03:23:41;6.00;5.00;3.00
75385;PMS5003;64239;55.012;73.474;2023-06-22T03:26:08;6.75;5.75;4.00
75385;PMS5003;64239;55.012;73.474;2023-06-22T03:28:34;5.00;5.00;3.75
75385;PMS5003;64239;55.012;73.474;2023-06-22T03:31:00;6.00;5.00;4.00
75385;PMS5003;64239;55.012;73.474;2023-06-22T03:33:25;4.25;4.00;3.00
75385;PMS5003;64239;55.012;73.474;2023-06-22T03:35:51;4.00;4.00;2.00
75385;PMS5003;64239;55.012;73.474;2023-06-22T03:38:17;4.00;3.00;2.00
75385;PMS5003;64239;55.012;73.474;2023-06-22T03:40:43;7.00;6.00;4.00
75385;PMS5003;64239;55.012;73.474;2023-06-22T03:43:09;5.00;5.00;3.00
75385;PMS5003;64239;55.012;73.474;2023-06-22T03:45:38;8.00;7.00;4.00
75385;PMS5003;64239;55.012;73.474;2023-06-22T03:48:05;6.00;5.00;4.00
75385;PMS5003;64239;55.012;73.474;2023-06-22T03:50:31;6.25;6.00;4.00
75385;PMS5003;64239;55.012;73.474;2023-06-22T03:52:57;6.75;6.00;4.00
75385;PMS5003;64239;55.012;73.474;2023-06-22T03:55:23;6.00;5.75;4.00
75385;PMS5003;64239;55.012;73.474;2023-06-22T03:57:49;5.00;4.00;3.00
75385;PMS5003;64239;55.012;73.474;2023-06-22T04:00:15;4.00;4.00;3.00
75385;PMS5003;64239;55.012;73.474;2023-06-22T04:02:41;6.00;5.00;4.00
75385;PMS5003;64239;55.012;73.474;2023-06-22T04:05:08;4.00;4.00;3.00
75385;PMS5003;64239;55.012;73.474;2023-06-22T04:07:34;9.00;8.00;5.00
75385;PMS5003;64239;55.012;73.474;2023-06-22T04:10:03;5.00;4.00;3.00
75385;PMS5003;64239;55.012;73.474;2023-06-22T04:12:29;6.00;5.00;3.00
75385;PMS5003;64239;55.012;73.474;2023-06-22T04:14:55;8.00;7.00;5.00
75385;PMS5003;64239;55.012;73.474;2023-06-22T04:17:21;5.00;5.00;3.75
75385;PMS5003;64239;55.012;73.474;2023-06-22T04:19:47;7.00;6.00;4.00
75385;PMS5003;64239;55.012;73.474;2023-06-22T04:22:12;6.00;5.00;4.00
75385;PMS5003;64239;55.012;73.474;2023-06-22T04:24:38;7.00;6.00;4.00
75385;PMS5003;64239;55.012;73.474;2023-06-22T04:27:04;7.50;7.00;4.00
75385;PMS5003;64239;55.012;73.474;2023-06-22T04:29:30;7.50;6.00;3.75
75385;PMS5003;64239;55.012;73.474;2023-06-22T04:31:57;5.00;5.00;3.00
75385;PMS5003;64239;55.012;73.474;2023-06-22T04:34:24;6.00;5.75;3.00
75385;PMS5003;64239;55.012;73.474;2023-06-22T04:36:53;10.00;8.00;4.00
75385;PMS5003;64239;55.012;73.474;2023-06-22T04:39:19;4.00;4.00;2.00
75385;PMS5003;64239;55.012;73.474;2023-06-22T04:41:45;4.00;4.00;2.00
75385;PMS5003;64239;55.012;73.474;2023-06-22T04:44:12;7.00;6.00;4.00
75385;PMS5003;64239;55.012;73.474;2023-06-22T04:46:38;5.00;5.00;3.00
75385;PMS5003;64239;55.012;73.474;2023-06-22T04:49:07;8.00;6.50;4.00
75385;PMS5003;64239;55.012;73.474;2023-06-22T04:51:40;5.50;4.00;3.00
75385;PMS5003;64239;55.012;73.474;2023-06-22T04:54:07;3.00;3.00;2.00
75385;PMS5003;64239;55.012;73.474;2023-06-22T04:56:33;4.00;3.00;2.00
75385;PMS5003;64239;55.012;73.474;2023-06-22T04:58:59;2.00;2.00;1.75
75385;PMS5003;64239;55.012;73.474;2023-06-22T05:01:25;5.00;4.00;2.00
75385;PMS5003;64239;55.012;73.474;2023-06-22T05:03:51;6.00;4.50;3.00
75385;PMS5003;64239;55.012;73.474;2023-06-22T05:06:21;6.25;5.25;3.00
75385;PMS5003;64239;55.012;73.474;2023-06-22T05:08:47;4.00;3.00;2.00
75385;PMS5003;64239;55.012;73.474;2023-06-22T05:11:13;4.75;4.00;2.00
75385;PMS5003;64239;55.012;73.474;2023-06-22T05:13:39;3.50;3.00;2.00
75385;PMS5003;64239;55.012;73.474;2023-06-22T05:16:04;6.00;5.00;3.00
75385;PMS5003;64239;55.012;73.474;2023-06-22T05:18:31;3.00;3.00;2.00
75385;PMS5003;64239;55.012;73.474;2023-06-22T05:20:57;3.00;3.00;3.00
75385;PMS5003;64239;55.012;73.474;2023-06-22T05:23:23;3.00;2.00;1.00
75385;PMS5003;64239;55.012;73.474;2023-06-22T05:25:49;3.00;2.00;1.00
75385;PMS5003;64239;55.012;73.474;2023-06-22T05:28:15;4.00;3.00;2.00
75385;PMS5003;64239;55.012;73.474;2023-06-22T05:30:41;3.00;3.00;2.00
75385;PMS5003;64239;55.012;73.474;2023-06-22T05:33:07;2.00;2.00;1.00
75385;PMS5003;64239;55.012;73.474;2023-06-22T05:35:33;2.50;2.00;1.00
75385;PMS5003;64239;55.012;73.474;2023-06-22T05:37:59;3.00;3.00;1.00
75385;PMS5003;64239;55.012;73.474;2023-06-22T05:40:25;4.00;3.00;2.00
75385;PMS5003;64239;55.012;73.474;2023-06-22T05:42:55;4.00;3.00;3.00
75385;PMS5003;64239;55.012;73.474;2023-06-22T05:45:21;2.00;2.00;1.00
75385;PMS5003;64239;55.012;73.474;2023-06-22T05:47:47;2.00;2.00;1.00
75385;PMS5003;64239;55.012;73.474;2023-06-22T05:50:22;2.00;2.00;1.00
75385;PMS5003;64239;55.012;73.474;2023-06-22T05:52:48;3.00;3.00;2.00
75385;PMS5003;64239;55.012;73.474;2023-06-22T05:55:14;4.75;4.00;2.00
75385;PMS5003;64239;55.012;73.474;2023-06-22T05:57:41;3.00;3.00;2.00
75385;PMS5003;64239;55.012;73.474;2023-06-22T06:00:07;5.00;4.00;2.00
75385;PMS5003;64239;55.012;73.474;2023-06-22T06:02:36;3.25;3.00;2.00
75385;PMS5003;64239;55.012;73.474;2023-06-22T06:05:02;3.25;2.25;1.50
75385;PMS5003;64239;55.012;73.474;2023-06-22T06:07:28;6.00;5.00;2.00
75385;PMS5003;64239;55.012;73.474;2023-06-22T06:09:54;3.00;3.00;1.75
75385;PMS5003;64239;55.012;73.474;2023-06-22T06:12:19;3.00;3.00;2.00
75385;PMS5003;64239;55.012;73.474;2023-06-22T06:14:46;2.00;2.00;1.00
75385;PMS5003;64239;55.012;73.474;2023-06-22T06:17:12;2.75;2.00;1.50
75385;PMS5003;64239;55.012;73.474;2023-06-22T06:19:38;2.00;2.00;1.00
75385;PMS5003;64239;55.012;73.474;2023-06-22T06:22:04;2.00;1.00;1.00
75385;PMS5003;64239;55.012;73.474;2023-06-22T06:24:30;2.00;2.00;2.00
75385;PMS5003;64239;55.012;73.474;2023-06-22T06:26:56;1.75;1.75;1.00
75385;PMS5003;64239;55.012;73.474;2023-06-22T06:29:22;2.00;2.00;1.00
75385;PMS5003;64239;55.012;73.474;2023-06-22T06:31:49;1.00;1.00;1.00
75385;PMS5003;64239;55.012;73.474;2023-06-22T06:34:14;1.00;1.00;1.00
75385;PMS5003;64239;55.012;73.474;2023-06-22T06:36:40;2.00;1.25;1.00
75385;PMS5003;64239;55.012;73.474;2023-06-22T06:39:06;2.00;2.00;2.00
75385;PMS5003;64239;55.012;73.474;2023-06-22T06:41:32;3.00;3.00;2.00
75385;PMS5003;64239;55.012;73.474;2023-06-22T06:43:58;10.00;8.00;5.00
75385;PMS5003;64239;55.012;73.474;2023-06-22T06:46:24;12.00;10.00;7.00
75385;PMS5003;64239;55.012;73.474;2023-06-22T06:48:50;9.00;8.00;6.00
75385;PMS5003;64239;55.012;73.474;2023-06-22T06:51:16;10.00;9.00;6.00
75385;PMS5003;64239;55.012;73.474;2023-06-22T06:53:42;3.00;3.00;3.00
75385;PMS5003;64239;55.012;73.474;2023-06-22T06:56:07;3.00;3.00;2.00
75385;PMS5003;64239;55.012;73.474;2023-06-22T06:58:36;2.00;2.00;2.00
75385;PMS5003;64239;55.012;73.474;2023-06-22T07:01:02;4.75;4.00;2.00
75385;PMS5003;64239;55.012;73.474;2023-06-22T07:03:28;4.00;3.00;2.00
75385;PMS5003;64239;55.012;73.474;2023-06-22T07:06:08;3.00;2.25;2.00
75385;PMS5003;64239;55.012;73.474;2023-06-22T07:08:34;4.00;4.00;2.75
75385;PMS5003;64239;55.012;73.474;2023-06-22T07:11:01;5.00;4.00;2.25
75385;PMS5003;64239;55.012;73.474;2023-06-22T07:13:27;3.00;2.00;2.00
75385;PMS5003;64239;55.012;73.474;2023-06-22T07:15:54;2.00;2.00;1.00
75385;PMS5003;64239;55.012;73.474;2023-06-22T07:18:20;5.00;4.00;3.00
75385;PMS5003;64239;55.012;73.474;2023-06-22T07:20:45;3.75;3.25;2.00
75385;PMS5003;64239;55.012;73.474;2023-06-22T07:23:12;3.00;2.00;2.00
75385;PMS5003;64239;55.012;73.474;2023-06-22T07:25:38;3.00;2.00;2.00
75385;PMS5003;64239;55.012;73.474;2023-06-22T07:28:04;3.50;3.00;2.00
75385;PMS5003;64239;55.012;73.474;2023-06-22T07:30:31;3.00;2.00;2.00
75385;PMS5003;64239;55.012;73.474;2023-06-22T07:32:57;8.00;5.00;3.00
75385;PMS5003;64239;55.012;73.474;2023-06-22T07:35:24;9.00;7.50;4.00
75385;PMS5003;64239;55.012;73.474;2023-06-22T07:37:50;12.00;10.00;6.00
75385;PMS5003;64239;55.012;73.474;2023-06-22T07:40:16;5.00;4.00;3.00
75385;PMS5003;64239;55.012;73.474;2023-06-22T07:42:45;6.00;5.00;3.00
75385;PMS5003;64239;55.012;73.474;2023-06-22T07:45:13;3.00;3.00;2.00
75385;PMS5003;64239;55.012;73.474;2023-06-22T07:47:41;4.25;4.25;3.00
75385;PMS5003;64239;55.012;73.474;2023-06-22T07:50:07;3.00;3.00;2.00
75385;PMS5003;64239;55.012;73.474;2023-06-22T07:52:32;2.00;1.00;1.00
75385;PMS5003;64239;55.012;73.474;2023-06-22T07:54:58;1.00;1.00;1.00
75385;PMS5003;64239;55.012;73.474;2023-06-22T07:57:24;2.00;2.00;1.00
75385;PMS5003;64239;55.012;73.474;2023-06-22T08:00:00;2.00;2.00;1.00
75385;PMS5003;64239;55.012;73.474;2023-06-22T08:02:26;2.00;2.00;2.00
75385;PMS5003;64239;55.012;73.474;2023-06-22T08:04:53;1.00;1.00;1.00
75385;PMS5003;64239;55.012;73.474;2023-06-22T08:07:18;2.00;2.00;1.00
75385;PMS5003;64239;55.012;73.474;2023-06-22T08:09:48;3.00;3.00;2.00
75385;PMS5003;64239;55.012;73.474;2023-06-22T08:12:15;1.00;1.00;0.00
75385;PMS5003;64239;55.012;73.474;2023-06-22T08:14:42;2.00;2.00;1.00
75385;PMS5003;64239;55.012;73.474;2023-06-22T08:17:09;4.00;3.00;2.00
75385;PMS5003;64239;55.012;73.474;2023-06-22T08:19:35;5.00;4.00;3.00
75385;PMS5003;64239;55.012;73.474;2023-06-22T08:22:02;3.00;3.00;2.00
75385;PMS5003;64239;55.012;73.474;2023-06-22T08:24:28;13.00;11.00;7.00
75385;PMS5003;64239;55.012;73.474;2023-06-22T08:26:56;14.00;10.75;7.00
75385;PMS5003;64239;55.012;73.474;2023-06-22T08:29:21;3.25;3.00;2.00
75385;PMS5003;64239;55.012;73.474;2023-06-22T08:31:48;10.00;8.00;4.00
75385;PMS5003;64239;55.012;73.474;2023-06-22T08:34:13;16.00;12.00;6.00
75385;PMS5003;64239;55.012;73.474;2023-06-22T08:36:39;5.00;4.00;2.75
75385;PMS5003;64239;55.012;73.474;2023-06-22T08:39:08;9.00;7.00;4.00
75385;PMS5003;64239;55.012;73.474;2023-06-22T08:41:34;8.25;6.00;3.50
75385;PMS5003;64239;55.012;73.474;2023-06-22T08:44:00;3.25;3.00;2.00
75385;PMS5003;64239;55.012;73.474;2023-06-22T08:46:26;4.00;3.00;2.00
75385;PMS5003;64239;55.012;73.474;2023-06-22T08:48:57;3.25;3.00;2.00
75385;PMS5003;64239;55.012;73.474;2023-06-22T08:51:23;3.00;3.00;2.00
75385;PMS5003;64239;55.012;73.474;2023-06-22T08:53:49;6.00;4.25;2.50
75385;PMS5003;64239;55.012;73.474;2023-06-22T08:56:15;3.00;2.00;2.00
75385;PMS5003;64239;55.012;73.474;2023-06-22T08:58:41;2.00;2.00;2.00
75385;PMS5003;64239;55.012;73.474;2023-06-22T09:01:07;3.00;2.00;1.50
75385;PMS5003;64239;55.012;73.474;2023-06-22T09:03:36;2.00;2.00;1.00
75385;PMS5003;64239;55.012;73.474;2023-06-22T09:06:03;6.00;5.00;3.00
75385;PMS5003;64239;55.012;73.474;2023-06-22T09:08:29;2.75;2.00;1.00
75385;PMS5003;64239;55.012;73.474;2023-06-22T09:10:55;3.00;3.00;2.00
75385;PMS5003;64239;55.012;73.474;2023-06-22T09:13:20;2.00;2.00;1.00
75385;PMS5003;64239;55.012;73.474;2023-06-22T09:15:47;5.00;4.00;2.00
75385;PMS5003;64239;55.012;73.474;2023-06-22T09:18:13;4.00;3.00;2.00
75385;PMS5003;64239;55.012;73.474;2023-06-22T09:20:40;3.00;2.50;2.00
75385;PMS5003;64239;55.012;73.474;2023-06-22T09:23:05;2.25;2.00;1.25
75385;PMS5003;64239;55.012;73.474;2023-06-22T09:25:31;4.00;4.00;3.00
75385;PMS5003;64239;55.012;73.474;2023-06-22T09:27:57;8.00;7.00;3.00
75385;PMS5003;64239;55.012;73.474;2023-06-22T09:30:23;8.25;6.50;3.00
75385;PMS5003;64239;55.012;73.474;2023-06-22T09:32:49;12.00;9.00;4.00
75385;PMS5003;64239;55.012;73.474;2023-06-22T09:35:15;14.50;10.50;5.75
75385;PMS5003;64239;55.012;73.474;2023-06-22T09:37:41;4.00;3.00;2.00
75385;PMS5003;64239;55.012;73.474;2023-06-22T09:40:07;5.00;4.00;2.50
75385;PMS5003;64239;55.012;73.474;2023-06-22T09:42:36;3.00;3.00;2.00
75385;PMS5003;64239;55.012;73.474;2023-06-22T09:45:02;5.00;4.00;3.00
75385;PMS5003;64239;55.012;73.474;2023-06-22T09:47:28;2.25;2.00;1.00
75385;PMS5003;64239;55.012;73.474;2023-06-22T09:49:54;3.00;2.50;1.00
75385;PMS5003;64239;55.012;73.474;2023-06-22T09:52:21;3.00;3.00;2.00
75385;PMS5003;64239;55.012;73.474;2023-06-22T09:54:47;2.50;2.00;1.00
75385;PMS5003;64239;55.012;73.474;2023-06-22T09:57:13;4.00;4.00;2.00
75385;PMS5003;64239;55.012;73.474;2023-06-22T09:59:39;5.75;5.00;3.00
75385;PMS5003;64239;55.012;73.474;2023-06-22T10:02:08;2.00;2.00;2.00
75385;PMS5003;64239;55.012;73.474;2023-06-22T10:04:34;2.00;2.00;1.00
75385;PMS5003;64239;55.012;73.474;2023-06-22T10:07:00;2.50;2.00;1.00
75385;PMS5003;64239;55.012;73.474;2023-06-22T10:09:26;3.00;3.00;2.00
75385;PMS5003;64239;55.012;73.474;2023-06-22T10:11:52;3.00;2.00;2.00
75385;PMS5003;64239;55.012;73.474;2023-06-22T10:14:18;3.00;3.00;2.00
75385;PMS5003;64239;55.012;73.474;2023-06-22T10:16:44;1.75;1.75;1.00
75385;PMS5003;64239;55.012;73.474;2023-06-22T10:19:10;3.75;3.50;3.00
75385;PMS5003;64239;55.012;73.474;2023-06-22T10:21:36;5.00;4.00;2.00
75385;PMS5003;64239;55.012;73.474;2023-06-22T10:24:02;2.00;2.00;2.00
75385;PMS5003;64239;55.012;73.474;2023-06-22T10:26:32;2.00;1.75;1.00
75385;PMS5003;64239;55.012;73.474;2023-06-22T10:28:58;2.50;2.25;2.00
75385;PMS5003;64239;55.012;73.474;2023-06-22T10:31:25;7.00;6.00;4.00
75385;PMS5003;64239;55.012;73.474;2023-06-22T10:33:53;8.00;7.00;4.00
75385;PMS5003;64239;55.012;73.474;2023-06-22T10:36:19;5.00;5.00;3.00
75385;PMS5003;64239;55.012;73.474;2023-06-22T10:38:45;7.00;6.00;4.00
75385;PMS5003;64239;55.012;73.474;2023-06-22T10:41:12;4.00;4.00;3.00
75385;PMS5003;64239;55.012;73.474;2023-06-22T10:43:38;5.00;4.00;3.00
75385;PMS5003;64239;55.012;73.474;2023-06-22T10:46:04;9.50;8.50;5.00
75385;PMS5003;64239;55.012;73.474;2023-06-22T10:48:30;7.00;5.75;3.25
75385;PMS5003;64239;55.012;73.474;2023-06-22T10:50:56;7.00;5.50;3.00
75385;PMS5003;64239;55.012;73.474;2023-06-22T10:53:22;10.00;8.00;5.00
75385;PMS5003;64239;55.012;73.474;2023-06-22T10:55:47;12.00;9.00;5.00
75385;PMS5003;64239;55.012;73.474;2023-06-22T10:58:13;5.00;4.00;3.00
75385;PMS5003;64239;55.012;73.474;2023-06-22T11:00:39;3.00;3.00;2.00
75385;PMS5003;64239;55.012;73.474;2023-06-22T11:03:05;7.00;6.00;3.00
75385;PMS5003;64239;55.012;73.474;2023-06-22T11:05:31;5.00;4.75;3.00
75385;PMS5003;64239;55.012;73.474;2023-06-22T11:07:57;6.00;5.00;3.00
75385;PMS5003;64239;55.012;73.474;2023-06-22T11:10:23;7.00;6.00;4.00
75385;PMS5003;64239;55.012;73.474;2023-06-22T11:12:49;13.75;11.00;6.75
75385;PMS5003;64239;55.012;73.474;2023-06-22T11:15:15;4.00;3.00;2.00
75385;PMS5003;64239;55.012;73.474;2023-06-22T11:17:41;4.00;4.00;2.00
75385;PMS5003;64239;55.012;73.474;2023-06-22T11:20:07;2.00;2.00;2.00
75385;PMS5003;64239;55.012;73.474;2023-06-22T11:22:39;2.00;2.00;1.00
75385;PMS5003;64239;55.012;73.474;2023-06-22T11:25:06;2.00;2.00;1.00
75385;PMS5003;64239;55.012;73.474;2023-06-22T11:27:32;3.75;3.00;2.00
75385;PMS5003;64239;55.012;73.474;2023-06-22T11:29:58;3.00;3.00;2.00
75385;PMS5003;64239;55.012;73.474;2023-06-22T11:32:24;6.00;6.00;4.00
75385;PMS5003;64239;55.012;73.474;2023-06-22T11:34:50;3.00;3.00;2.00
75385;PMS5003;64239;55.012;73.474;2023-06-22T11:37:16;3.00;2.00;1.00
75385;PMS5003;64239;55.012;73.474;2023-06-22T11:39:49;6.75;6.00;4.00
75385;PMS5003;64239;55.012;73.474;2023-06-22T11:42:15;7.00;6.00;4.00
75385;PMS5003;64239;55.012;73.474;2023-06-22T11:44:41;6.00;5.00;4.00
75385;PMS5003;64239;55.012;73.474;2023-06-22T11:47:07;4.00;3.50;2.25
75385;PMS5003;64239;55.012;73.474;2023-06-22T11:49:33;4.00;4.00;3.00
75385;PMS5003;64239;55.012;73.474;2023-06-22T11:51:59;5.00;4.00;3.00
75385;PMS5003;64239;55.012;73.474;2023-06-22T11:54:25;6.00;5.00;3.25
75385;PMS5003;64239;55.012;73.474;2023-06-22T11:56:51;8.75;8.00;6.00
75385;PMS5003;64239;55.012;73.474;2023-06-22T11:59:17;4.00;3.75;2.00
75385;PMS5003;64239;55.012;73.474;2023-06-22T12:01:43;5.75;5.00;3.00
75385;PMS5003;64239;55.012;73.474;2023-06-22T12:04:09;10.00;9.00;5.00
75385;PMS5003;64239;55.012;73.474;2023-06-22T12:06:38;7.00;6.00;3.00
75385;PMS5003;64239;55.012;73.474;2023-06-22T12:09:07;8.00;7.00;4.00
75385;PMS5003;64239;55.012;73.474;2023-06-22T12:11:33;7.75;6.00;4.00
75385;PMS5003;64239;55.012;73.474;2023-06-22T12:13:59;6.00;5.00;3.00
75385;PMS5003;64239;55.012;73.474;2023-06-22T12:16:27;4.00;4.00;3.00
75385;PMS5003;64239;55.012;73.474;2023-06-22T12:18:53;5.00;4.00;3.00
75385;PMS5003;64239;55.012;73.474;2023-06-22T12:21:19;13.00;11.00;6.00
75385;PMS5003;64239;55.012;73.474;2023-06-22T12:23:45;6.00;5.00;3.00
75385;PMS5003;64239;55.012;73.474;2023-06-22T12:26:12;8.00;7.00;5.00
75385;PMS5003;64239;55.012;73.474;2023-06-22T12:28:38;6.00;6.00;3.00
75385;PMS5003;64239;55.012;73.474;2023-06-22T12:31:04;15.50;12.00;7.25
75385;PMS5003;64239;55.012;73.474;2023-06-22T12:33:30;7.00;6.00;4.00
75385;PMS5003;64239;55.012;73.474;2023-06-22T12:35:56;7.00;6.00;3.00
75385;PMS5003;64239;55.012;73.474;2023-06-22T12:38:22;7.00;5.00;3.00
75385;PMS5003;64239;55.012;73.474;2023-06-22T12:40:52;4.00;4.00;3.00
75385;PMS5003;64239;55.012;73.474;2023-06-22T12:43:18;3.00;2.50;1.00
75385;PMS5003;64239;55.012;73.474;2023-06-22T12:45:44;3.00;3.00;1.50
75385;PMS5003;64239;55.012;73.474;2023-06-22T12:48:10;5.00;4.00;2.00
75385;PMS5003;64239;55.012;73.474;2023-06-22T12:50:36;2.00;2.00;1.00
75385;PMS5003;64239;55.012;73.474;2023-06-22T12:53:02;3.00;3.00;1.50
75385;PMS5003;64239;55.012;73.474;2023-06-22T12:55:29;3.00;3.00;2.00
75385;PMS5003;64239;55.012;73.474;2023-06-22T12:57:55;3.75;3.00;2.00
75385;PMS5003;64239;55.012;73.474;2023-06-22T13:00:22;4.00;3.00;2.00
75385;PMS5003;64239;55.012;73.474;2023-06-22T13:02:49;4.50;4.00;2.00
75385;PMS5003;64239;55.012;73.474;2023-06-22T13:05:15;6.00;5.00;3.00
75385;PMS5003;64239;55.012;73.474;2023-06-22T13:07:40;7.00;5.00;3.00
75385;PMS5003;64239;55.012;73.474;2023-06-22T13:10:08;5.25;5.00;3.00
75385;PMS5003;64239;55.012;73.474;2023-06-22T13:12:34;4.50;4.00;3.00
75385;PMS5003;64239;55.012;73.474;2023-06-22T13:15:00;6.00;6.00;4.00
75385;PMS5003;64239;55.012;73.474;2023-06-22T13:17:26;6.00;5.00;3.00
75385;PMS5003;64239;55.012;73.474;2023-06-22T13:19:51;7.00;6.00;3.75
75385;PMS5003;64239;55.012;73.474;2023-06-22T13:24:55;7.50;6.75;4.00
75385;PMS5003;64239;55.012;73.474;2023-06-22T13:27:21;11.00;8.50;5.00
75385;PMS5003;64239;55.012;73.474;2023-06-22T13:29:47;20.00;16.00;10.75
75385;PMS5003;64239;55.012;73.474;2023-06-22T13:32:13;27.50;23.25;16.00
75385;PMS5003;64239;55.012;73.474;2023-06-22T13:34:39;24.00;20.00;14.50
75385;PMS5003;64239;55.012;73.474;2023-06-22T13:37:05;37.50;31.50;24.00
75385;PMS5003;64239;55.012;73.474;2023-06-22T13:39:31;28.50;25.00;18.00
75385;PMS5003;64239;55.012;73.474;2023-06-22T13:41:57;32.50;27.75;20.75
75385;PMS5003;64239;55.012;73.474;2023-06-22T13:44:23;36.50;30.50;21.25
75385;PMS5003;64239;55.012;73.474;2023-06-22T13:46:53;27.00;24.50;17.25
75385;PMS5003;64239;55.012;73.474;2023-06-22T13:49:19;19.50;17.00;13.00
75385;PMS5003;64239;55.012;73.474;2023-06-22T13:51:44;13.25;12.00;8.50
75385;PMS5003;64239;55.012;73.474;2023-06-22T13:54:10;17.00;15.00;11.00
75385;PMS5003;64239;55.012;73.474;2023-06-22T13:56:36;15.00;12.00;9.00
75385;PMS5003;64239;55.012;73.474;2023-06-22T13:59:02;11.00;9.25;7.00
75385;PMS5003;64239;55.012;73.474;2023-06-22T14:01:28;13.00;11.00;7.00
75385;PMS5003;64239;55.012;73.474;2023-06-22T14:03:54;10.75;9.00;5.25
75385;PMS5003;64239;55.012;73.474;2023-06-22T14:06:19;12.00;10.00;6.00
75385;PMS5003;64239;55.012;73.474;2023-06-22T14:08:45;11.00;9.00;6.00
75385;PMS5003;64239;55.012;73.474;2023-06-22T14:11:11;8.50;6.75;4.00
75385;PMS5003;64239;55.012;73.474;2023-06-22T14:13:37;10.00;8.00;5.00
75385;PMS5003;64239;55.012;73.474;2023-06-22T14:16:04;7.00;6.00;4.00
75385;PMS5003;64239;55.012;73.474;2023-06-22T14:18:30;9.00;7.00;4.00